createdAt,value
2023-02-21T00:01:56.620Z,5.50
2023-02-21T00:05:57.264Z,4.78
2023-02-21T00:09:58.793Z,5.80
2023-02-21T00:13:59.263Z,4.47
2023-02-21T00:17:59.673Z,4.75
2023-02-21T00:22:00.345Z,6.68
2023-02-21T00:26:00.520Z,5.15
2023-02-21T00:30:00.965Z,5.30
2023-02-21T00:34:01.696Z,4.78
2023-02-21T00:38:01.883Z,3.90
2023-02-21T00:42:02.499Z,5.18
2023-02-21T00:46:03.493Z,3.97
2023-02-21T00:50:03.672Z,4.50
2023-02-21T00:54:04.206Z,6.18
2023-02-21T00:58:04.737Z,4.40
2023-02-21T01:02:04.931Z,4.55
2023-02-21T01:06:05.635Z,3.78
2023-02-21T01:10:05.811Z,4.18
2023-02-21T01:14:06.469Z,4.20
2023-02-21T01:18:06.966Z,4.50
2023-02-21T01:22:07.652Z,5.43
2023-02-21T01:26:08.284Z,4.78
2023-02-21T01:30:08.767Z,4.45
2023-02-21T01:34:09.267Z,4.75
2023-02-21T01:38:09.875Z,4.88
2023-02-21T01:42:10.463Z,4.00
2023-02-21T01:46:13.852Z,6.15
2023-02-21T01:50:14.244Z,4.78
2023-02-21T01:54:14.815Z,4.53
2023-02-21T01:58:15.886Z,4.88
2023-02-21T02:02:40.422Z,5.90
2023-02-21T02:06:41.221Z,5.13
2023-02-21T02:10:42.237Z,5.50
2023-02-21T02:14:48.504Z,5.25
2023-02-21T02:18:51.188Z,6.70
2023-02-21T02:22:55.947Z,6.07
2023-02-21T02:26:43.543Z,5.97
2023-02-21T02:30:40.670Z,6.57
2023-02-21T02:34:37.948Z,6.03
2023-02-21T02:38:38.981Z,6.53
2023-02-21T02:42:43.408Z,5.00
2023-02-21T02:46:31.877Z,3.50
2023-02-21T02:50:14.188Z,4.55
2023-02-21T02:53:55.961Z,3.70
2023-02-21T02:57:41.211Z,3.00
2023-02-21T03:01:37.389Z,3.10
2023-02-21T03:05:45.049Z,3.15
2023-02-21T03:10:08.378Z,3.50
2023-02-21T03:13:50.108Z,3.70
2023-02-21T03:17:38.132Z,4.00
2023-02-21T03:21:24.944Z,4.07
2023-02-21T03:25:07.908Z,5.50
2023-02-21T03:28:50.725Z,5.03
2023-02-21T03:32:32.359Z,4.60
2023-02-21T03:36:15.032Z,3.63
2023-02-21T03:39:56.844Z,4.15
2023-02-21T03:43:38.702Z,3.97
2023-02-21T03:47:20.955Z,4.85
2023-02-21T03:51:02.978Z,3.80
2023-02-21T03:54:44.726Z,4.32
2023-02-21T03:58:26.459Z,5.32
2023-02-21T04:02:08.899Z,4.85
2023-02-21T04:05:50.946Z,4.83
2023-02-21T04:09:32.747Z,5.68
2023-02-21T04:13:14.457Z,5.40
2023-02-21T04:16:56.174Z,4.97
2023-02-21T04:20:37.891Z,4.25
2023-02-21T04:24:19.697Z,4.13
2023-02-21T04:28:01.545Z,3.58
2023-02-21T04:31:43.540Z,4.78
2023-02-21T04:35:25.358Z,4.13
2023-02-21T04:39:07.669Z,4.57
2023-02-21T04:42:49.386Z,3.40
2023-02-21T04:46:31.227Z,5.43
2023-02-21T04:50:13.050Z,5.43
2023-02-21T04:53:55.540Z,5.38
2023-02-21T04:57:37.244Z,3.70
2023-02-21T05:01:20.383Z,5.35
2023-02-21T05:05:02.399Z,4.88
2023-02-21T05:08:44.215Z,6.45
2023-02-21T05:12:25.997Z,4.47
2023-02-21T05:16:07.832Z,5.32
2023-02-21T05:19:49.568Z,4.47
2023-02-21T05:23:35.656Z,4.45
2023-02-21T05:27:19.357Z,5.45
2023-02-21T05:31:01.414Z,4.53
2023-02-21T05:34:44.600Z,4.50
2023-02-21T05:38:27.236Z,5.90
2023-02-21T05:42:09.295Z,4.97
2023-02-21T05:45:51.119Z,6.25
2023-02-21T05:49:33.458Z,5.43
2023-02-21T05:53:15.184Z,5.68
2023-02-21T05:56:57.263Z,5.47
2023-02-21T06:00:38.957Z,5.40
2023-02-21T06:04:20.645Z,6.20
2023-02-21T06:08:02.389Z,5.38
2023-02-21T06:11:44.388Z,5.85
2023-02-21T06:15:26.233Z,5.30
2023-02-21T06:19:08.968Z,5.97
2023-02-21T06:22:50.968Z,4.20
2023-02-21T06:26:33.074Z,5.75
2023-02-21T06:30:14.994Z,5.78
2023-02-21T06:33:56.779Z,6.22
2023-02-21T06:37:38.590Z,5.13
2023-02-21T06:41:24.637Z,5.10
2023-02-21T06:45:06.608Z,5.93
2023-02-21T06:48:48.995Z,6.90
2023-02-21T06:52:31.889Z,5.53
2023-02-21T06:56:13.627Z,6.72
2023-02-21T06:59:56.238Z,6.55
2023-02-21T07:03:43.267Z,9.05
2023-02-21T07:07:25.104Z,8.07
2023-02-21T07:11:07.550Z,7.10
2023-02-21T07:14:49.290Z,8.13
2023-02-21T07:18:31.323Z,7.70
2023-02-21T07:22:13.291Z,8.90
2023-02-21T07:25:55.056Z,8.40
2023-02-21T07:29:36.857Z,6.07
2023-02-21T07:33:18.704Z,7.57
2023-02-21T07:37:00.448Z,7.60
2023-02-21T07:40:42.179Z,7.57
2023-02-21T07:44:23.880Z,7.90
2023-02-21T07:48:05.787Z,7.32
2023-02-21T07:51:47.500Z,10.05
2023-02-21T07:55:29.217Z,8.70
2023-02-21T07:59:10.918Z,9.48
2023-02-21T08:02:53.247Z,9.02
2023-02-21T08:06:35.407Z,9.98
2023-02-21T08:10:25.982Z,8.57
2023-02-21T08:14:07.750Z,11.30
2023-02-21T08:17:50.668Z,10.05
2023-02-21T08:21:32.597Z,12.60
2023-02-21T08:25:15.947Z,10.82
2023-02-21T08:32:39.261Z,13.15
2023-02-21T08:36:21.038Z,12.63
2023-02-21T08:40:04.532Z,13.80
2023-02-21T08:43:46.952Z,13.48
2023-02-21T08:47:28.919Z,11.67
2023-02-21T08:51:10.628Z,13.38
2023-02-21T08:54:52.334Z,13.43
2023-02-21T08:58:35.294Z,13.65
2023-02-21T09:02:28.463Z,13.52
2023-02-21T09:06:10.386Z,11.93
2023-02-21T09:09:52.096Z,11.43
2023-02-21T09:13:34.665Z,10.75
2023-02-21T09:17:16.419Z,12.05
2023-02-21T09:20:59.336Z,14.02
2023-02-21T09:24:42.135Z,10.35
2023-02-21T09:28:24.493Z,11.40
2023-02-21T09:32:06.364Z,11.80
2023-02-21T09:35:48.203Z,11.82
2023-02-21T09:39:29.911Z,12.35
2023-02-21T09:43:25.723Z,12.68
2023-02-21T09:47:08.006Z,10.85
2023-02-21T09:50:57.178Z,11.75
2023-02-21T09:54:46.662Z,13.05
2023-02-21T09:58:30.259Z,14.00
2023-02-21T10:02:16.075Z,13.82
2023-02-21T10:06:05.178Z,11.05
2023-02-21T10:09:51.970Z,13.45
2023-02-21T10:14:07.339Z,11.68
2023-02-21T10:17:52.339Z,11.55
2023-02-21T10:21:42.754Z,12.20
2023-02-21T10:25:31.562Z,15.25
2023-02-21T10:29:26.405Z,17.58
2023-02-21T10:33:08.958Z,17.92
2023-02-21T10:36:52.204Z,11.83
2023-02-21T10:44:36.296Z,10.30
2023-02-21T10:48:21.319Z,9.57
2023-02-21T10:52:17.201Z,10.80
2023-02-21T10:56:20.357Z,8.32
2023-02-21T11:00:10.060Z,8.38
2023-02-21T11:03:56.774Z,8.48
2023-02-21T11:07:38.676Z,8.65
2023-02-21T11:11:37.178Z,8.18
2023-02-21T11:15:20.021Z,7.72
2023-02-21T11:19:06.879Z,6.57
2023-02-21T11:22:49.716Z,6.53
2023-02-21T11:26:47.267Z,5.85
2023-02-21T11:30:32.377Z,5.20
2023-02-21T11:34:15.699Z,4.72
2023-02-21T11:41:56.446Z,5.57
2023-02-21T11:45:45.331Z,7.40
2023-02-21T11:49:39.279Z,7.20
2023-02-21T11:53:32.242Z,6.28
2023-02-21T11:57:29.019Z,6.22
2023-02-21T12:01:16.677Z,6.57
2023-02-21T12:05:29.527Z,5.20
2023-02-21T12:09:58.717Z,6.93
2023-02-21T12:13:49.841Z,6.20
2023-02-21T12:17:55.103Z,7.30
2023-02-21T12:22:14.632Z,5.65
2023-02-21T12:26:11.116Z,6.47
2023-02-21T12:30:18.827Z,6.85
2023-02-21T12:34:38.938Z,7.10
2023-02-21T12:38:28.056Z,4.95
2023-02-21T12:42:31.716Z,6.05
2023-02-21T12:46:38.230Z,6.80
2023-02-21T12:50:27.032Z,7.78
2023-02-21T12:54:18.894Z,8.70
2023-02-21T12:58:25.009Z,5.65
2023-02-21T13:02:23.371Z,4.53
2023-02-21T13:06:33.287Z,5.25
2023-02-21T13:10:27.988Z,4.40
2023-02-21T13:14:23.696Z,3.83
2023-02-21T13:18:09.777Z,5.22
2023-02-21T13:22:01.591Z,3.30
2023-02-21T13:26:12.020Z,3.03
2023-02-21T13:30:11.166Z,2.60
2023-02-21T13:33:59.252Z,2.75
2023-02-21T13:37:46.447Z,3.30
2023-02-21T13:41:33.484Z,3.38
2023-02-21T13:45:22.287Z,3.08
2023-02-21T13:49:38.172Z,2.70
2023-02-21T13:53:53.638Z,2.80
2023-02-21T13:57:38.946Z,2.95
2023-02-21T14:01:41.636Z,4.30
2023-02-21T14:05:24.493Z,4.30
2023-02-21T14:09:15.694Z,6.43
2023-02-21T14:13:01.377Z,4.38
2023-02-21T14:16:52.304Z,4.35
2023-02-21T14:20:36.435Z,4.00
2023-02-21T14:24:30.447Z,4.68
2023-02-21T14:28:50.632Z,4.32
2023-02-21T14:32:41.515Z,5.18
2023-02-21T14:36:24.481Z,4.68
2023-02-21T14:40:21.510Z,4.72
2023-02-21T14:44:21.127Z,3.50
2023-02-21T14:48:32.132Z,3.10
2023-02-21T14:52:52.258Z,3.80
2023-02-21T14:56:49.559Z,5.15
2023-02-21T15:01:12.730Z,3.05
2023-02-21T15:05:06.308Z,4.38
2023-02-21T15:08:50.270Z,4.00
2023-02-21T15:12:35.345Z,3.45
2023-02-21T15:16:17.305Z,3.28
2023-02-21T15:20:06.951Z,3.97
2023-02-21T15:24:00.377Z,3.30
2023-02-21T15:31:28.413Z,4.03
2023-02-21T15:35:22.269Z,7.07
2023-02-21T15:39:14.167Z,5.20
2023-02-21T15:42:56.011Z,3.97
2023-02-21T15:46:46.796Z,3.55
2023-02-21T15:50:43.792Z,4.93
2023-02-21T15:54:38.450Z,3.88
2023-02-21T15:58:24.977Z,4.13
2023-02-21T16:02:18.031Z,4.57
2023-02-21T16:06:20.116Z,5.05
2023-02-21T16:10:05.672Z,5.72
2023-02-21T16:13:47.867Z,5.15
2023-02-21T16:17:35.653Z,3.65
2023-02-21T16:21:26.044Z,4.03
2023-02-21T16:25:10.469Z,4.43
2023-02-21T16:28:52.184Z,5.25
2023-02-21T16:32:35.760Z,6.97
2023-02-21T16:36:31.805Z,5.68
2023-02-21T16:40:16.880Z,6.53
2023-02-21T16:43:58.570Z,7.90
2023-02-21T16:47:40.494Z,9.80
2023-02-21T16:51:22.785Z,9.93
2023-02-21T16:55:04.773Z,9.63
2023-02-21T16:58:51.046Z,11.73
2023-02-21T17:02:32.810Z,9.43
2023-02-21T17:06:21.332Z,9.52
2023-02-21T17:10:03.136Z,15.23
2023-02-21T17:13:44.864Z,11.68
2023-02-21T17:17:26.704Z,10.70
2023-02-21T17:21:08.399Z,11.63
2023-02-21T17:24:50.280Z,11.82
2023-02-21T17:28:32.083Z,11.60
2023-02-21T17:32:16.141Z,16.33
2023-02-21T17:35:58.113Z,16.58
2023-02-21T17:39:39.878Z,17.02
2023-02-21T17:43:21.661Z,15.10
2023-02-21T17:47:07.357Z,16.00
2023-02-21T17:50:49.096Z,16.27
2023-02-21T17:54:30.816Z,18.35
2023-02-21T17:58:12.594Z,19.38
2023-02-21T18:01:55.280Z,19.45
2023-02-21T18:05:37.526Z,23.02
2023-02-21T18:09:20.176Z,23.48
2023-02-21T18:13:01.989Z,30.02
2023-02-21T18:16:43.772Z,35.08
2023-02-21T18:20:25.495Z,22.67
2023-02-21T18:24:11.673Z,20.45
2023-02-21T18:27:53.452Z,19.60
2023-02-21T18:31:35.793Z,22.00
2023-02-21T18:35:18.079Z,27.33
2023-02-21T18:38:59.776Z,23.33
2023-02-21T18:42:42.546Z,25.30
2023-02-21T18:46:24.379Z,38.05
2023-02-21T18:50:06.739Z,27.95
2023-02-21T18:53:49.441Z,34.15
2023-02-21T18:57:31.494Z,40.60
2023-02-21T19:01:15.657Z,31.73
2023-02-21T19:04:57.627Z,29.67
2023-02-21T19:08:39.839Z,27.75
2023-02-21T19:12:21.549Z,29.92
2023-02-21T19:16:03.453Z,30.38
2023-02-21T19:19:45.347Z,57.08
2023-02-21T19:23:27.691Z,37.83
2023-02-21T19:27:09.833Z,34.17
2023-02-21T19:30:51.729Z,38.63
2023-02-21T19:34:33.590Z,31.13
2023-02-21T19:38:15.284Z,38.67
2023-02-21T19:41:57.174Z,38.17
2023-02-21T19:45:38.899Z,33.40
2023-02-21T19:49:21.989Z,34.22
2023-02-21T19:53:04.667Z,32.53
2023-02-21T19:56:46.799Z,34.42
2023-02-21T20:00:28.660Z,37.05
2023-02-21T20:04:10.452Z,38.92
2023-02-21T20:07:52.181Z,40.40
2023-02-21T20:11:34.053Z,40.67
2023-02-21T20:15:15.787Z,34.17
2023-02-21T20:18:57.950Z,34.30
2023-02-21T20:22:40.037Z,37.45
2023-02-21T20:26:23.331Z,37.67
2023-02-21T20:33:48.336Z,37.08
2023-02-21T20:37:32.407Z,38.92
2023-02-21T20:41:15.735Z,34.60
2023-02-21T20:45:01.890Z,40.08
2023-02-21T20:48:43.603Z,35.90
2023-02-21T20:52:25.338Z,33.17
2023-02-21T20:56:08.321Z,36.08
2023-02-21T20:59:50.336Z,34.40
2023-02-21T21:03:35.857Z,37.17
2023-02-21T21:07:23.268Z,36.53
2023-02-21T21:11:05.174Z,39.88
2023-02-21T21:14:49.087Z,36.72
2023-02-21T21:18:31.447Z,38.72
2023-02-21T21:22:18.263Z,38.85
2023-02-21T21:26:01.974Z,37.97
2023-02-21T21:29:45.693Z,36.25
2023-02-21T21:33:28.338Z,37.63
2023-02-21T21:37:10.166Z,51.63
2023-02-21T21:40:53.101Z,41.08
2023-02-21T21:44:37.407Z,37.85
2023-02-21T21:48:19.665Z,37.47
2023-02-21T21:52:04.450Z,31.02
2023-02-21T21:55:46.970Z,32.20
2023-02-21T21:59:29.692Z,34.83
2023-02-21T22:03:14.365Z,27.20
2023-02-21T22:06:56.901Z,36.58
2023-02-21T22:10:39.160Z,29.90
2023-02-21T22:14:22.731Z,30.15
2023-02-21T22:18:04.636Z,30.85
2023-02-21T22:21:47.577Z,35.17
2023-02-21T22:25:30.656Z,32.85
2023-02-21T22:29:15.635Z,33.17
2023-02-21T22:32:57.448Z,32.40
2023-02-21T22:36:45.035Z,34.72
2023-02-21T22:40:29.799Z,31.73
2023-02-21T22:44:12.409Z,29.88
2023-02-21T22:47:57.680Z,31.27
2023-02-21T22:51:39.430Z,29.42
2023-02-21T22:55:25.014Z,30.05
2023-02-21T22:59:12.609Z,35.60
2023-02-21T23:02:54.626Z,30.30
2023-02-21T23:06:39.816Z,35.38
2023-02-21T23:10:23.873Z,37.45
2023-02-21T23:14:07.058Z,32.28
2023-02-21T23:17:50.205Z,35.50
2023-02-21T23:21:32.008Z,39.00
2023-02-21T23:25:22.865Z,33.72
2023-02-21T23:29:04.585Z,31.25
2023-02-21T23:32:47.766Z,30.30
2023-02-21T23:36:29.502Z,28.85
2023-02-21T23:40:16.927Z,35.00
2023-02-21T23:43:58.664Z,31.23
2023-02-21T23:47:43.893Z,32.33
2023-02-21T23:51:26.456Z,37.53
2023-02-21T23:55:08.460Z,32.92
2023-02-21T23:58:50.980Z,35.72
